sensor_id;sensor_type;location;lat;lon;timestamp;temperature;humidity
79244;SHT31;68672;42.676;23.356;2023-08-31T00:01:08;22.32;49.35
79244;SHT31;68672;42.676;23.356;2023-08-31T00:03:34;22.29;49.33
79244;SHT31;68672;42.676;23.356;2023-08-31T00:06:03;22.32;49.24
79244;SHT31;68672;42.676;23.356;2023-08-31T00:08:29;22.33;49.09
79244;SHT31;68672;42.676;23.356;2023-08-31T00:10:58;22.36;49.08
79244;SHT31;68672;42.676;23.356;2023-08-31T00:13:25;22.35;49.15
79244;SHT31;68672;42.676;23.356;2023-08-31T00:15:54;22.36;49.21
79244;SHT31;68672;42.676;23.356;2023-08-31T00:18:20;22.35;49.27
79244;SHT31;68672;42.676;23.356;2023-08-31T00:20:46;22.35;49.31
79244;SHT31;68672;42.676;23.356;2023-08-31T00:23:11;22.36;49.34
79244;SHT31;68672;42.676;23.356;2023-08-31T00:25:37;22.35;49.34
79244;SHT31;68672;42.676;23.356;2023-08-31T00:28:02;22.33;49.33
79244;SHT31;68672;42.676;23.356;2023-08-31T00:30:32;22.35;49.31
79244;SHT31;68672;42.676;23.356;2023-08-31T00:32:58;22.32;49.45
79244;SHT31;68672;42.676;23.356;2023-08-31T00:35:27;22.32;49.37
79244;SHT31;68672;42.676;23.356;2023-08-31T00:37:53;22.30;49.37
79244;SHT31;68672;42.676;23.356;2023-08-31T00:40:23;22.26;49.39
79244;SHT31;68672;42.676;23.356;2023-08-31T00:42:49;22.26;49.44
79244;SHT31;68672;42.676;23.356;2023-08-31T00:45:14;22.23;49.33
79244;SHT31;68672;42.676;23.356;2023-08-31T00:47:41;22.24;49.38
79244;SHT31;68672;42.676;23.356;2023-08-31T00:50:09;22.24;49.46
79244;SHT31;68672;42.676;23.356;2023-08-31T00:52:36;22.24;49.48
79244;SHT31;68672;42.676;23.356;2023-08-31T00:55:02;22.20;49.49
79244;SHT31;68672;42.676;23.356;2023-08-31T00:57:30;22.23;49.54
79244;SHT31;68672;42.676;23.356;2023-08-31T00:59:58;22.23;49.62
79244;SHT31;68672;42.676;23.356;2023-08-31T01:05:37;22.23;49.59
79244;SHT31;68672;42.676;23.356;2023-08-31T01:13:33;22.23;49.75
79244;SHT31;68672;42.676;23.356;2023-08-31T01:16:05;22.19;49.85
79244;SHT31;68672;42.676;23.356;2023-08-31T01:18:32;22.22;49.79
79244;SHT31;68672;42.676;23.356;2023-08-31T01:21:05;22.23;49.80
79244;SHT31;68672;42.676;23.356;2023-08-31T01:26:12;22.22;49.85
79244;SHT31;68672;42.676;23.356;2023-08-31T01:28:38;22.22;49.94
79244;SHT31;68672;42.676;23.356;2023-08-31T01:31:04;22.23;50.00
79244;SHT31;68672;42.676;23.356;2023-08-31T01:33:31;22.22;50.19
79244;SHT31;68672;42.676;23.356;2023-08-31T01:36:04;22.19;50.23
79244;SHT31;68672;42.676;23.356;2023-08-31T01:38:35;22.16;50.17
79244;SHT31;68672;42.676;23.356;2023-08-31T01:41:06;22.19;50.47
79244;SHT31;68672;42.676;23.356;2023-08-31T01:43:32;22.16;51.14
79244;SHT31;68672;42.676;23.356;2023-08-31T01:45:59;22.13;51.76
79244;SHT31;68672;42.676;23.356;2023-08-31T01:48:25;22.14;51.94
79244;SHT31;68672;42.676;23.356;2023-08-31T01:50:51;22.06;52.20
79244;SHT31;68672;42.676;23.356;2023-08-31T01:53:16;22.02;52.44
79244;SHT31;68672;42.676;23.356;2023-08-31T01:55:41;21.92;52.73
79244;SHT31;68672;42.676;23.356;2023-08-31T01:58:07;21.86;52.93
79244;SHT31;68672;42.676;23.356;2023-08-31T02:00:32;21.81;53.21
79244;SHT31;68672;42.676;23.356;2023-08-31T02:03:03;21.71;53.46
79244;SHT31;68672;42.676;23.356;2023-08-31T02:05:38;21.64;53.70
79244;SHT31;68672;42.676;23.356;2023-08-31T02:08:03;21.51;53.85
79244;SHT31;68672;42.676;23.356;2023-08-31T02:10:29;21.48;53.84
79244;SHT31;68672;42.676;23.356;2023-08-31T02:12:54;21.48;53.80
79244;SHT31;68672;42.676;23.356;2023-08-31T02:15:20;21.43;53.96
79244;SHT31;68672;42.676;23.356;2023-08-31T02:17:45;21.40;54.12
79244;SHT31;68672;42.676;23.356;2023-08-31T02:20:13;21.33;54.16
79244;SHT31;68672;42.676;23.356;2023-08-31T02:22:39;21.22;54.36
79244;SHT31;68672;42.676;23.356;2023-08-31T02:25:05;21.22;54.44
79244;SHT31;68672;42.676;23.356;2023-08-31T02:27:31;21.08;54.52
79244;SHT31;68672;42.676;23.356;2023-08-31T02:29:56;21.06;54.76
79244;SHT31;68672;42.676;23.356;2023-08-31T02:32:22;20.92;55.01
79244;SHT31;68672;42.676;23.356;2023-08-31T02:34:47;20.86;55.32
79244;SHT31;68672;42.676;23.356;2023-08-31T02:37:13;20.80;55.33
79244;SHT31;68672;42.676;23.356;2023-08-31T02:39:38;20.77;55.50
79244;SHT31;68672;42.676;23.356;2023-08-31T02:42:08;20.75;55.61
79244;SHT31;68672;42.676;23.356;2023-08-31T02:44:33;20.72;55.76
79244;SHT31;68672;42.676;23.356;2023-08-31T02:46:59;20.71;55.70
79244;SHT31;68672;42.676;23.356;2023-08-31T02:49:27;20.71;55.78
79244;SHT31;68672;42.676;23.356;2023-08-31T02:51:52;20.69;55.76
79244;SHT31;68672;42.676;23.356;2023-08-31T02:54:18;20.72;55.80
79244;SHT31;68672;42.676;23.356;2023-08-31T02:56:46;20.69;55.91
79244;SHT31;68672;42.676;23.356;2023-08-31T02:59:11;20.68;55.94
79244;SHT31;68672;42.676;23.356;2023-08-31T03:01:40;20.65;55.91
79244;SHT31;68672;42.676;23.356;2023-08-31T03:04:05;20.64;55.87
79244;SHT31;68672;42.676;23.356;2023-08-31T03:06:34;20.64;55.87
79244;SHT31;68672;42.676;23.356;2023-08-31T03:08:59;20.64;55.97
79244;SHT31;68672;42.676;23.356;2023-08-31T03:11:24;20.59;56.01
79244;SHT31;68672;42.676;23.356;2023-08-31T03:13:50;20.56;56.02
79244;SHT31;68672;42.676;23.356;2023-08-31T03:16:15;20.53;56.00
79244;SHT31;68672;42.676;23.356;2023-08-31T03:18:41;20.49;56.09
79244;SHT31;68672;42.676;23.356;2023-08-31T03:21:06;20.45;56.13
79244;SHT31;68672;42.676;23.356;2023-08-31T03:23:31;20.38;56.47
79244;SHT31;68672;42.676;23.356;2023-08-31T03:25:57;20.32;56.60
79244;SHT31;68672;42.676;23.356;2023-08-31T03:28:22;20.34;56.73
79244;SHT31;68672;42.676;23.356;2023-08-31T03:30:55;20.32;56.95
79244;SHT31;68672;42.676;23.356;2023-08-31T03:33:21;20.29;57.01
79244;SHT31;68672;42.676;23.356;2023-08-31T03:35:46;20.25;57.13
79244;SHT31;68672;42.676;23.356;2023-08-31T03:38:11;20.18;57.29
79244;SHT31;68672;42.676;23.356;2023-08-31T03:40:37;20.17;57.50
79244;SHT31;68672;42.676;23.356;2023-08-31T03:43:02;20.17;57.97
79244;SHT31;68672;42.676;23.356;2023-08-31T03:45:28;20.15;58.15
79244;SHT31;68672;42.676;23.356;2023-08-31T03:47:54;20.14;58.15
79244;SHT31;68672;42.676;23.356;2023-08-31T03:50:19;20.20;58.28
79244;SHT31;68672;42.676;23.356;2023-08-31T03:52:45;20.20;58.48
79244;SHT31;68672;42.676;23.356;2023-08-31T03:55:10;20.14;58.50
79244;SHT31;68672;42.676;23.356;2023-08-31T03:57:36;20.17;58.42
79244;SHT31;68672;42.676;23.356;2023-08-31T04:00:04;20.17;58.47
79244;SHT31;68672;42.676;23.356;2023-08-31T04:02:37;20.17;58.63
79244;SHT31;68672;42.676;23.356;2023-08-31T04:05:03;20.11;58.68
79244;SHT31;68672;42.676;23.356;2023-08-31T04:07:31;20.10;58.82
79244;SHT31;68672;42.676;23.356;2023-08-31T04:10:03;20.11;58.99
79244;SHT31;68672;42.676;23.356;2023-08-31T04:12:31;20.11;58.85
79244;SHT31;68672;42.676;23.356;2023-08-31T04:14:57;20.07;58.85
79244;SHT31;68672;42.676;23.356;2023-08-31T04:17:22;20.10;59.03
79244;SHT31;68672;42.676;23.356;2023-08-31T04:19:50;20.13;59.11
79244;SHT31;68672;42.676;23.356;2023-08-31T04:22:15;20.14;58.78
79244;SHT31;68672;42.676;23.356;2023-08-31T04:24:41;20.22;58.87
79244;SHT31;68672;42.676;23.356;2023-08-31T04:27:06;20.25;58.92
79244;SHT31;68672;42.676;23.356;2023-08-31T04:29:31;20.26;58.82
79244;SHT31;68672;42.676;23.356;2023-08-31T04:31:57;20.25;58.80
79244;SHT31;68672;42.676;23.356;2023-08-31T04:34:24;20.35;58.70
79244;SHT31;68672;42.676;23.356;2023-08-31T04:36:52;20.36;58.52
79244;SHT31;68672;42.676;23.356;2023-08-31T04:39:17;20.46;58.08
79244;SHT31;68672;42.676;23.356;2023-08-31T04:41:43;20.52;57.78
79244;SHT31;68672;42.676;23.356;2023-08-31T04:44:11;20.53;57.64
79244;SHT31;68672;42.676;23.356;2023-08-31T04:46:38;20.57;57.50
79244;SHT31;68672;42.676;23.356;2023-08-31T04:49:03;20.62;57.69
79244;SHT31;68672;42.676;23.356;2023-08-31T04:51:34;20.61;57.77
79244;SHT31;68672;42.676;23.356;2023-08-31T04:54:00;20.61;57.80
79244;SHT31;68672;42.676;23.356;2023-08-31T04:56:30;20.65;57.80
79244;SHT31;68672;42.676;23.356;2023-08-31T04:58:59;20.71;57.91
79244;SHT31;68672;42.676;23.356;2023-08-31T05:01:25;20.75;57.86
79244;SHT31;68672;42.676;23.356;2023-08-31T05:03:53;20.79;57.83
79244;SHT31;68672;42.676;23.356;2023-08-31T05:06:18;20.83;57.63
79244;SHT31;68672;42.676;23.356;2023-08-31T05:08:46;20.87;57.46
79244;SHT31;68672;42.676;23.356;2023-08-31T05:11:11;20.93;57.32
79244;SHT31;68672;42.676;23.356;2023-08-31T05:13:37;21.02;57.36
79244;SHT31;68672;42.676;23.356;2023-08-31T05:16:03;21.04;57.15
79244;SHT31;68672;42.676;23.356;2023-08-31T05:18:29;21.16;57.16
79244;SHT31;68672;42.676;23.356;2023-08-31T05:20:54;21.28;57.33
79244;SHT31;68672;42.676;23.356;2023-08-31T05:23:19;21.35;56.75
79244;SHT31;68672;42.676;23.356;2023-08-31T05:25:48;21.43;56.13
79244;SHT31;68672;42.676;23.356;2023-08-31T05:28:13;21.45;56.45
79244;SHT31;68672;42.676;23.356;2023-08-31T05:30:52;21.51;56.27
79244;SHT31;68672;42.676;23.356;2023-08-31T05:33:18;21.57;56.29
79244;SHT31;68672;42.676;23.356;2023-08-31T05:35:44;21.62;56.21
79244;SHT31;68672;42.676;23.356;2023-08-31T05:38:10;21.75;56.25
79244;SHT31;68672;42.676;23.356;2023-08-31T05:40:36;21.84;56.05
79244;SHT31;68672;42.676;23.356;2023-08-31T05:43:04;21.92;55.67
79244;SHT31;68672;42.676;23.356;2023-08-31T05:45:33;22.01;55.23
79244;SHT31;68672;42.676;23.356;2023-08-31T05:47:59;22.10;54.63
79244;SHT31;68672;42.676;23.356;2023-08-31T05:50:26;22.19;54.43
79244;SHT31;68672;42.676;23.356;2023-08-31T05:52:55;22.22;54.07
79244;SHT31;68672;42.676;23.356;2023-08-31T05:55:21;22.23;53.11
79244;SHT31;68672;42.676;23.356;2023-08-31T05:57:49;22.30;53.16
79244;SHT31;68672;42.676;23.356;2023-08-31T06:00:15;22.36;53.26
79244;SHT31;68672;42.676;23.356;2023-08-31T06:02:42;22.33;52.68
79244;SHT31;68672;42.676;23.356;2023-08-31T06:05:10;22.33;52.35
79244;SHT31;68672;42.676;23.356;2023-08-31T06:07:37;22.37;52.23
79244;SHT31;68672;42.676;23.356;2023-08-31T06:10:04;22.44;52.24
79244;SHT31;68672;42.676;23.356;2023-08-31T06:12:30;22.52;52.60
79244;SHT31;68672;42.676;23.356;2023-08-31T06:14:58;22.59;53.07
79244;SHT31;68672;42.676;23.356;2023-08-31T06:17:23;22.67;53.29
79244;SHT31;68672;42.676;23.356;2023-08-31T06:19:49;22.78;53.61
79244;SHT31;68672;42.676;23.356;2023-08-31T06:22:14;22.84;53.26
79244;SHT31;68672;42.676;23.356;2023-08-31T06:24:39;22.92;53.18
79244;SHT31;68672;42.676;23.356;2023-08-31T06:27:05;23.01;52.87
79244;SHT31;68672;42.676;23.356;2023-08-31T06:29:33;23.08;53.21
79244;SHT31;68672;42.676;23.356;2023-08-31T06:31:58;23.12;53.00
79244;SHT31;68672;42.676;23.356;2023-08-31T06:34:24;23.21;52.34
79244;SHT31;68672;42.676;23.356;2023-08-31T06:36:52;23.32;51.71
79244;SHT31;68672;42.676;23.356;2023-08-31T06:39:20;23.37;51.93
79244;SHT31;68672;42.676;23.356;2023-08-31T06:41:45;23.42;51.55
79244;SHT31;68672;42.676;23.356;2023-08-31T06:44:11;23.46;51.43
79244;SHT31;68672;42.676;23.356;2023-08-31T06:46:36;23.46;50.92
79244;SHT31;68672;42.676;23.356;2023-08-31T06:49:04;23.55;50.86
79244;SHT31;68672;42.676;23.356;2023-08-31T06:51:32;23.59;50.27
79244;SHT31;68672;42.676;23.356;2023-08-31T06:53:58;23.62;48.48
79244;SHT31;68672;42.676;23.356;2023-08-31T06:56:32;23.66;47.77
79244;SHT31;68672;42.676;23.356;2023-08-31T06:58:58;23.72;47.69
79244;SHT31;68672;42.676;23.356;2023-08-31T07:01:23;23.72;48.21
79244;SHT31;68672;42.676;23.356;2023-08-31T07:03:48;23.83;48.18
79244;SHT31;68672;42.676;23.356;2023-08-31T07:06:14;23.93;48.26
79244;SHT31;68672;42.676;23.356;2023-08-31T07:08:39;23.97;47.94
79244;SHT31;68672;42.676;23.356;2023-08-31T07:11:06;24.04;47.64
79244;SHT31;68672;42.676;23.356;2023-08-31T07:13:37;23.97;46.72
79244;SHT31;68672;42.676;23.356;2023-08-31T07:16:02;24.00;47.37
79244;SHT31;68672;42.676;23.356;2023-08-31T07:18:28;24.03;47.41
79244;SHT31;68672;42.676;23.356;2023-08-31T07:20:53;24.16;46.93
79244;SHT31;68672;42.676;23.356;2023-08-31T07:23:19;24.25;46.57
79244;SHT31;68672;42.676;23.356;2023-08-31T07:25:45;24.31;46.46
79244;SHT31;68672;42.676;23.356;2023-08-31T07:28:10;24.41;46.18
79244;SHT31;68672;42.676;23.356;2023-08-31T07:30:36;24.48;45.97
79244;SHT31;68672;42.676;23.356;2023-08-31T07:33:02;24.61;46.26
79244;SHT31;68672;42.676;23.356;2023-08-31T07:35:29;24.69;45.42
79244;SHT31;68672;42.676;23.356;2023-08-31T07:37:58;24.75;44.91
79244;SHT31;68672;42.676;23.356;2023-08-31T07:40:23;24.75;44.89
79244;SHT31;68672;42.676;23.356;2023-08-31T07:42:50;24.86;45.26
79244;SHT31;68672;42.676;23.356;2023-08-31T07:45:16;25.05;45.12
79244;SHT31;68672;42.676;23.356;2023-08-31T07:47:42;25.13;44.97
79244;SHT31;68672;42.676;23.356;2023-08-31T07:50:10;25.29;44.94
79244;SHT31;68672;42.676;23.356;2023-08-31T07:52:37;25.37;44.74
79244;SHT31;68672;42.676;23.356;2023-08-31T07:55:03;25.47;44.20
79244;SHT31;68672;42.676;23.356;2023-08-31T07:57:29;25.51;44.13
79244;SHT31;68672;42.676;23.356;2023-08-31T07:59:55;25.67;43.81
79244;SHT31;68672;42.676;23.356;2023-08-31T08:02:20;25.74;43.63
79244;SHT31;68672;42.676;23.356;2023-08-31T08:04:46;25.84;43.03
79244;SHT31;68672;42.676;23.356;2023-08-31T08:07:11;25.89;42.79
79244;SHT31;68672;42.676;23.356;2023-08-31T08:09:37;25.97;43.00
79244;SHT31;68672;42.676;23.356;2023-08-31T08:12:02;26.01;42.39
79244;SHT31;68672;42.676;23.356;2023-08-31T08:14:28;26.16;42.53
79244;SHT31;68672;42.676;23.356;2023-08-31T08:16:54;26.26;41.95
79244;SHT31;68672;42.676;23.356;2023-08-31T08:19:23;26.32;40.98
79244;SHT31;68672;42.676;23.356;2023-08-31T08:21:50;26.35;41.02
79244;SHT31;68672;42.676;23.356;2023-08-31T08:24:15;26.43;40.99
79244;SHT31;68672;42.676;23.356;2023-08-31T08:26:43;26.53;40.87
79244;SHT31;68672;42.676;23.356;2023-08-31T08:29:09;26.63;40.78
79244;SHT31;68672;42.676;23.356;2023-08-31T08:31:35;26.69;40.08
79244;SHT31;68672;42.676;23.356;2023-08-31T08:34:01;26.76;38.89
79244;SHT31;68672;42.676;23.356;2023-08-31T08:36:26;26.77;37.94
79244;SHT31;68672;42.676;23.356;2023-08-31T08:38:52;26.83;37.02
79244;SHT31;68672;42.676;23.356;2023-08-31T08:41:23;26.87;37.25
79244;SHT31;68672;42.676;23.356;2023-08-31T08:43:51;26.96;37.21
79244;SHT31;68672;42.676;23.356;2023-08-31T08:46:16;27.08;36.68
79244;SHT31;68672;42.676;23.356;2023-08-31T08:48:42;27.06;35.85
79244;SHT31;68672;42.676;23.356;2023-08-31T08:51:10;27.07;35.83
79244;SHT31;68672;42.676;23.356;2023-08-31T08:53:35;27.17;34.68
79244;SHT31;68672;42.676;23.356;2023-08-31T08:56:03;27.15;32.97
79244;SHT31;68672;42.676;23.356;2023-08-31T08:58:29;27.10;32.20
79244;SHT31;68672;42.676;23.356;2023-08-31T09:00:55;27.15;31.89
79244;SHT31;68672;42.676;23.356;2023-08-31T09:03:23;27.18;31.44
79244;SHT31;68672;42.676;23.356;2023-08-31T09:05:50;27.27;31.48
79244;SHT31;68672;42.676;23.356;2023-08-31T09:08:16;27.35;31.57
79244;SHT31;68672;42.676;23.356;2023-08-31T09:10:45;27.48;31.72
79244;SHT31;68672;42.676;23.356;2023-08-31T09:13:14;27.54;31.72
79244;SHT31;68672;42.676;23.356;2023-08-31T09:18:14;27.79;31.38
79244;SHT31;68672;42.676;23.356;2023-08-31T09:20:46;27.89;31.31
79244;SHT31;68672;42.676;23.356;2023-08-31T09:23:13;28.00;31.40
79244;SHT31;68672;42.676;23.356;2023-08-31T09:25:52;28.18;31.65
79244;SHT31;68672;42.676;23.356;2023-08-31T09:28:23;28.32;31.89
79244;SHT31;68672;42.676;23.356;2023-08-31T09:30:52;28.41;31.37
79244;SHT31;68672;42.676;23.356;2023-08-31T09:33:19;28.48;31.57
79244;SHT31;68672;42.676;23.356;2023-08-31T09:35:56;28.55;31.72
79244;SHT31;68672;42.676;23.356;2023-08-31T09:38:22;28.64;31.55
79244;SHT31;68672;42.676;23.356;2023-08-31T09:40:48;28.72;31.04
79244;SHT31;68672;42.676;23.356;2023-08-31T09:43:20;28.72;30.88
79244;SHT31;68672;42.676;23.356;2023-08-31T09:45:46;28.82;31.06
79244;SHT31;68672;42.676;23.356;2023-08-31T09:48:13;28.92;31.08
79244;SHT31;68672;42.676;23.356;2023-08-31T09:50:40;29.06;30.97
79244;SHT31;68672;42.676;23.356;2023-08-31T09:53:10;29.15;30.95
79244;SHT31;68672;42.676;23.356;2023-08-31T09:55:38;29.29;31.11
79244;SHT31;68672;42.676;23.356;2023-08-31T09:58:06;29.47;30.81
79244;SHT31;68672;42.676;23.356;2023-08-31T10:00:36;29.60;30.47
79244;SHT31;68672;42.676;23.356;2023-08-31T10:03:04;29.57;30.39
79244;SHT31;68672;42.676;23.356;2023-08-31T10:05:30;29.42;30.53
79244;SHT31;68672;42.676;23.356;2023-08-31T10:07:57;29.34;30.42
79244;SHT31;68672;42.676;23.356;2023-08-31T10:10:23;29.34;29.72
79244;SHT31;68672;42.676;23.356;2023-08-31T10:12:49;29.15;29.49
79244;SHT31;68672;42.676;23.356;2023-08-31T10:15:17;29.13;29.93
79244;SHT31;68672;42.676;23.356;2023-08-31T10:17:43;29.33;29.69
79244;SHT31;68672;42.676;23.356;2023-08-31T10:20:15;29.49;29.04
79244;SHT31;68672;42.676;23.356;2023-08-31T10:22:41;29.47;28.59
79244;SHT31;68672;42.676;23.356;2023-08-31T10:25:07;29.59;28.41
79244;SHT31;68672;42.676;23.356;2023-08-31T10:30:15;29.43;28.47
79244;SHT31;68672;42.676;23.356;2023-08-31T10:32:41;29.32;28.55
79244;SHT31;68672;42.676;23.356;2023-08-31T10:35:12;29.09;27.52
79244;SHT31;68672;42.676;23.356;2023-08-31T10:37:43;28.90;28.07
79244;SHT31;68672;42.676;23.356;2023-08-31T10:40:10;28.78;28.24
79244;SHT31;68672;42.676;23.356;2023-08-31T10:42:45;28.65;28.79
79244;SHT31;68672;42.676;23.356;2023-08-31T10:45:13;28.54;29.34
79244;SHT31;68672;42.676;23.356;2023-08-31T10:47:41;28.45;29.71
79244;SHT31;68672;42.676;23.356;2023-08-31T10:50:21;28.36;30.25
79244;SHT31;68672;42.676;23.356;2023-08-31T10:52:47;28.32;30.49
79244;SHT31;68672;42.676;23.356;2023-08-31T10:55:13;28.47;30.60
79244;SHT31;68672;42.676;23.356;2023-08-31T10:57:40;28.50;30.71
79244;SHT31;68672;42.676;23.356;2023-08-31T11:00:07;28.44;30.65
79244;SHT31;68672;42.676;23.356;2023-08-31T11:02:33;28.50;30.65
79244;SHT31;68672;42.676;23.356;2023-08-31T11:07:31;28.48;30.17
79244;SHT31;68672;42.676;23.356;2023-08-31T11:10:14;28.47;31.10
79244;SHT31;68672;42.676;23.356;2023-08-31T11:12:41;28.45;31.64
79244;SHT31;68672;42.676;23.356;2023-08-31T11:15:07;28.34;31.79
79244;SHT31;68672;42.676;23.356;2023-08-31T11:17:33;28.41;32.23
79244;SHT31;68672;42.676;23.356;2023-08-31T11:20:02;28.37;32.15
79244;SHT31;68672;42.676;23.356;2023-08-31T11:22:30;28.33;32.27
79244;SHT31;68672;42.676;23.356;2023-08-31T11:24:56;28.30;32.50
79244;SHT31;68672;42.676;23.356;2023-08-31T11:27:22;28.41;32.63
79244;SHT31;68672;42.676;23.356;2023-08-31T11:29:47;28.43;32.57
79244;SHT31;68672;42.676;23.356;2023-08-31T11:32:13;28.44;32.43
79244;SHT31;68672;42.676;23.356;2023-08-31T11:34:44;28.44;32.62
79244;SHT31;68672;42.676;23.356;2023-08-31T11:37:11;28.53;31.76
79244;SHT31;68672;42.676;23.356;2023-08-31T11:39:40;28.53;31.93
79244;SHT31;68672;42.676;23.356;2023-08-31T11:42:05;28.51;31.32
79244;SHT31;68672;42.676;23.356;2023-08-31T11:44:39;28.45;31.30
79244;SHT31;68672;42.676;23.356;2023-08-31T11:47:07;28.37;31.14
79244;SHT31;68672;42.676;23.356;2023-08-31T11:49:33;28.37;31.31
79244;SHT31;68672;42.676;23.356;2023-08-31T11:51:59;28.37;31.76
79244;SHT31;68672;42.676;23.356;2023-08-31T11:54:25;28.63;32.57
79244;SHT31;68672;42.676;23.356;2023-08-31T11:56:51;28.88;33.18
79244;SHT31;68672;42.676;23.356;2023-08-31T11:59:18;29.16;33.01
79244;SHT31;68672;42.676;23.356;2023-08-31T12:01:46;29.29;32.47
79244;SHT31;68672;42.676;23.356;2023-08-31T12:04:20;29.40;31.89
79244;SHT31;68672;42.676;23.356;2023-08-31T12:06:49;29.45;32.15
79244;SHT31;68672;42.676;23.356;2023-08-31T12:09:16;29.36;32.20
79244;SHT31;68672;42.676;23.356;2023-08-31T12:11:41;29.23;32.53
79244;SHT31;68672;42.676;23.356;2023-08-31T12:14:21;29.13;32.69
79244;SHT31;68672;42.676;23.356;2023-08-31T12:16:47;29.09;32.71
79244;SHT31;68672;42.676;23.356;2023-08-31T12:19:16;29.05;32.44
79244;SHT31;68672;42.676;23.356;2023-08-31T12:21:43;28.98;32.36
79244;SHT31;68672;42.676;23.356;2023-08-31T12:24:09;29.03;32.18
79244;SHT31;68672;42.676;23.356;2023-08-31T12:26:34;29.12;32.18
79244;SHT31;68672;42.676;23.356;2023-08-31T12:29:00;29.19;32.09
79244;SHT31;68672;42.676;23.356;2023-08-31T12:31:32;29.18;31.85
79244;SHT31;68672;42.676;23.356;2023-08-31T12:33:58;29.18;31.75
79244;SHT31;68672;42.676;23.356;2023-08-31T12:36:25;29.22;31.93
79244;SHT31;68672;42.676;23.356;2023-08-31T12:38:50;29.12;32.16
79244;SHT31;68672;42.676;23.356;2023-08-31T12:41:17;29.03;32.29
79244;SHT31;68672;42.676;23.356;2023-08-31T12:43:42;28.96;32.51
79244;SHT31;68672;42.676;23.356;2023-08-31T12:46:07;28.87;32.91
79244;SHT31;68672;42.676;23.356;2023-08-31T12:48:35;28.78;32.78
79244;SHT31;68672;42.676;23.356;2023-08-31T12:51:00;28.64;32.98
79244;SHT31;68672;42.676;23.356;2023-08-31T12:53:26;28.55;32.96
79244;SHT31;68672;42.676;23.356;2023-08-31T12:55:52;28.47;32.99
79244;SHT31;68672;42.676;23.356;2023-08-31T12:58:21;28.40;33.50
79244;SHT31;68672;42.676;23.356;2023-08-31T13:00:49;28.28;33.73
79244;SHT31;68672;42.676;23.356;2023-08-31T13:03:18;28.18;33.79
79244;SHT31;68672;42.676;23.356;2023-08-31T13:05:44;28.13;33.55
79244;SHT31;68672;42.676;23.356;2023-08-31T13:08:10;28.03;33.32
79244;SHT31;68672;42.676;23.356;2023-08-31T13:10:35;27.96;33.12
79244;SHT31;68672;42.676;23.356;2023-08-31T13:13:01;27.86;33.41
79244;SHT31;68672;42.676;23.356;2023-08-31T13:15:26;27.75;33.60
79244;SHT31;68672;42.676;23.356;2023-08-31T13:17:54;27.73;33.73
79244;SHT31;68672;42.676;23.356;2023-08-31T13:20:20;27.70;33.61
79244;SHT31;68672;42.676;23.356;2023-08-31T13:22:45;27.63;33.80
79244;SHT31;68672;42.676;23.356;2023-08-31T13:25:11;27.56;33.95
79244;SHT31;68672;42.676;23.356;2023-08-31T13:27:37;27.54;34.29
79244;SHT31;68672;42.676;23.356;2023-08-31T13:30:03;27.54;34.24
79244;SHT31;68672;42.676;23.356;2023-08-31T13:32:32;27.54;34.37
79244;SHT31;68672;42.676;23.356;2023-08-31T13:34:58;27.56;34.35
79244;SHT31;68672;42.676;23.356;2023-08-31T13:37:23;27.58;34.16
79244;SHT31;68672;42.676;23.356;2023-08-31T13:39:50;27.54;34.24
79244;SHT31;68672;42.676;23.356;2023-08-31T13:42:17;27.54;34.35
79244;SHT31;68672;42.676;23.356;2023-08-31T13:44:42;27.55;34.37
79244;SHT31;68672;42.676;23.356;2023-08-31T13:47:08;27.66;34.98
79244;SHT31;68672;42.676;23.356;2023-08-31T13:49:34;27.66;35.98
79244;SHT31;68672;42.676;23.356;2023-08-31T13:52:00;27.65;37.50
79244;SHT31;68672;42.676;23.356;2023-08-31T13:54:25;27.62;37.60
79244;SHT31;68672;42.676;23.356;2023-08-31T13:56:54;27.56;36.72
79244;SHT31;68672;42.676;23.356;2023-08-31T13:59:19;27.51;35.17
79244;SHT31;68672;42.676;23.356;2023-08-31T14:01:45;27.46;35.44
79244;SHT31;68672;42.676;23.356;2023-08-31T14:04:10;27.37;35.04
79244;SHT31;68672;42.676;23.356;2023-08-31T14:06:36;27.34;34.35
79244;SHT31;68672;42.676;23.356;2023-08-31T14:09:01;27.31;33.59
79244;SHT31;68672;42.676;23.356;2023-08-31T14:11:27;27.28;33.24
79244;SHT31;68672;42.676;23.356;2023-08-31T14:14:01;27.24;33.26
79244;SHT31;68672;42.676;23.356;2023-08-31T14:16:29;27.21;33.26
79244;SHT31;68672;42.676;23.356;2023-08-31T14:18:54;27.21;33.43
79244;SHT31;68672;42.676;23.356;2023-08-31T14:21:19;27.21;33.22
79244;SHT31;68672;42.676;23.356;2023-08-31T14:23:46;27.20;33.20
79244;SHT31;68672;42.676;23.356;2023-08-31T14:26:11;27.15;33.98
79244;SHT31;68672;42.676;23.356;2023-08-31T14:28:37;27.12;34.68
79244;SHT31;68672;42.676;23.356;2023-08-31T14:31:06;27.04;35.50
79244;SHT31;68672;42.676;23.356;2023-08-31T14:33:31;26.97;36.62
79244;SHT31;68672;42.676;23.356;2023-08-31T14:35:57;26.86;37.11
79244;SHT31;68672;42.676;23.356;2023-08-31T14:38:23;26.72;37.79
79244;SHT31;68672;42.676;23.356;2023-08-31T14:40:49;26.64;38.09
79244;SHT31;68672;42.676;23.356;2023-08-31T14:43:14;26.55;38.36
79244;SHT31;68672;42.676;23.356;2023-08-31T14:45:39;26.45;39.01
79244;SHT31;68672;42.676;23.356;2023-08-31T14:48:05;26.35;38.65
79244;SHT31;68672;42.676;23.356;2023-08-31T14:50:32;26.28;38.38
79244;SHT31;68672;42.676;23.356;2023-08-31T14:52:57;26.24;37.91
79244;SHT31;68672;42.676;23.356;2023-08-31T14:55:23;26.16;37.98
79244;SHT31;68672;42.676;23.356;2023-08-31T14:57:48;26.16;37.45
79244;SHT31;68672;42.676;23.356;2023-08-31T15:00:17;26.09;37.36
79244;SHT31;68672;42.676;23.356;2023-08-31T15:02:42;26.09;37.12
79244;SHT31;68672;42.676;23.356;2023-08-31T15:05:08;26.06;36.58
79244;SHT31;68672;42.676;23.356;2023-08-31T15:07:33;26.02;36.15
79244;SHT31;68672;42.676;23.356;2023-08-31T15:09:59;25.99;36.30
79244;SHT31;68672;42.676;23.356;2023-08-31T15:12:25;25.98;36.42
79244;SHT31;68672;42.676;23.356;2023-08-31T15:14:50;25.95;35.89
79244;SHT31;68672;42.676;23.356;2023-08-31T15:17:16;25.91;35.83
79244;SHT31;68672;42.676;23.356;2023-08-31T15:19:41;25.92;36.01
79244;SHT31;68672;42.676;23.356;2023-08-31T15:22:06;25.95;35.87
79244;SHT31;68672;42.676;23.356;2023-08-31T15:24:32;25.95;35.96
79244;SHT31;68672;42.676;23.356;2023-08-31T15:26:57;26.04;35.95
79244;SHT31;68672;42.676;23.356;2023-08-31T15:29:24;26.15;36.27
79244;SHT31;68672;42.676;23.356;2023-08-31T15:31:50;26.15;36.43